Hobart Airport
YMHB : rendu visible

Aérodrome :











RETROUVEZ-NOUS SUR...

 
LOGIN :

S'inscrire | Disclaimer

   EN    FR    IT 

 









Légende :    VFR   VFR Marginal   IFR   IFR Intensif   IFR Très Intensif
Visi : 
Plafond : 
>= 8 km
>= 3000ft
5 à 8 km
1000 à 3000 ft
1500m à 5 km
500 à 1000 ft
800 à 1500m
200 à 500 ft
< 800m
< 200 ft
Symboles :   Orages  Brouillard  Fortes neiges  Fortes précipitations  Vent > 20 kt






- Altitude de l'aérodrome : 13 ft
- Code IATA : HBA


YMHB - Hobart

DERNIER METAR :
  • 310100Z 33010KT 9999 FEW042 15/04 Q1006

METARs EXPIRÉS :
  • 310030Z 34008KT 9999 FEW040 14/06 Q1006
  • 310000Z 36008KT 9999 FEW035 13/05 Q1006
  • 302330Z 36008KT 9999 FEW035 13/05 Q1006
  • 302300Z 35007KT 9999 FEW040 12/05 Q1006
  • 302230Z 35007KT 9999 FEW050 11/06 Q1006

TAF TAF YMHB
Valide du 31 à 00h jusqu'au 01 à 00h UTC


302317Z 3100/0100 34010KT CAVOK
FIR YMMM / Océanie



MET'MAP, la Météo Aéronautique d'un coup d'oeil ! - Copyright ORBIFLY Décembre 2007 - Disclaimer

ORBIFLY MET'MAP TEAM :

Programmation & Développement : Alexandra Zaïnal
Sur une idée originale de : Baudouin d'Aumeries
Assistance à la programmation : Marc-Olivier Méhu
Soutien technique & logistique : Manuel Goepfert

Contact : metmap@orbifly.com




SOURCES & CREDITS :

   NOAA       Earth
Advisory